Time;durP1;ratioP1;P1;durP2;ratioP2;P2;SDS_P1;SDS_P2;PMS_P1;PMS_P2;Temp;Humidity;BMP_temperature;BMP_pressure;BME280_temperature;BME280_humidity;BME280_pressure;Samples;Min_cycle;Max_cycle;Signal;HPM_P1;HPM_P2
2021/08/10 00:00:43;;;;;;;8.98;1.85;;;17.30;98.00;;;;;;5032036;28;20092;-80
2021/08/10 00:03:09;;;;;;;2.40;1.40;;;17.30;97.90;;;;;;5032297;28;20021;-79
2021/08/10 00:05:35;;;;;;;3.85;1.48;;;17.20;97.90;;;;;;5031847;28;20528;-78
2021/08/10 00:08:00;;;;;;;4.05;1.27;;;17.20;98.10;;;;;;5031788;28;20489;-79
2021/08/10 00:10:26;;;;;;;5.78;2.03;;;17.20;97.90;;;;;;5031572;28;20042;-79
2021/08/10 00:12:51;;;;;;;1.90;1.50;;;17.20;97.70;;;;;;5030546;28;20049;-79
2021/08/10 00:15:17;;;;;;;3.47;1.65;;;17.30;97.70;;;;;;5030644;28;20117;-80
2021/08/10 00:17:43;;;;;;;3.50;1.60;;;17.20;97.60;;;;;;5031994;28;20049;-82
2021/08/10 00:20:09;;;;;;;7.63;1.60;;;17.20;97.70;;;;;;5031445;28;20091;-79
2021/08/10 00:22:35;;;;;;;2.33;1.48;;;17.00;97.80;;;;;;5031399;28;20132;-79
2021/08/10 00:25:01;;;;;;;1.98;1.50;;;16.90;97.80;;;;;;5031260;28;20120;-79
2021/08/10 00:27:26;;;;;;;6.72;1.95;;;17.00;97.80;;;;;;5031222;28;20026;-80
2021/08/10 00:29:52;;;;;;;2.63;1.48;;;16.90;98.00;;;;;;5031869;28;20052;-79
2021/08/10 00:32:17;;;;;;;5.82;1.90;;;16.90;98.00;;;;;;5031409;28;20371;-79
2021/08/10 00:34:43;;;;;;;2.67;1.45;;;16.70;98.00;;;;;;5031244;28;20046;-80
2021/08/10 00:37:09;;;;;;;3.53;1.65;;;16.70;98.30;;;;;;5030263;28;20394;-80
2021/08/10 00:39:36;;;;;;;3.35;1.58;;;16.60;98.30;;;;;;5031136;28;20033;-79
2021/08/10 00:42:02;;;;;;;3.03;1.50;;;16.60;98.40;;;;;;5029876;28;20116;-80
2021/08/10 00:44:28;;;;;;;3.10;1.50;;;16.50;98.40;;;;;;5031345;28;20025;-78
2021/08/10 00:46:53;;;;;;;4.32;1.60;;;16.50;98.50;;;;;;5030980;28;20022;-78
2021/08/10 00:49:19;;;;;;;3.25;1.45;;;16.50;98.40;;;;;;5031323;28;20486;-80
2021/08/10 00:51:47;;;;;;;3.30;1.50;;;16.60;98.40;;;;;;5030007;28;20362;-80
2021/08/10 00:54:13;;;;;;;3.40;1.98;;;16.40;98.40;;;;;;5030337;28;20037;-79
2021/08/10 00:56:40;;;;;;;5.60;2.17;;;16.40;98.50;;;;;;5031259;28;20025;-79
2021/08/10 00:59:05;;;;;;;3.70;1.90;;;16.30;98.50;;;;;;5030849;28;20026;-79
2021/08/10 01:01:31;;;;;;;3.97;1.60;;;16.30;98.50;;;;;;5030757;28;20040;-79
2021/08/10 01:03:56;;;;;;;3.58;1.40;;;16.30;98.50;;;;;;5030847;28;20038;-79
2021/08/10 01:06:55;;;;;;;2.80;1.70;;;16.20;98.40;;;;;;5030838;28;20534;-80
2021/08/10 01:09:57;;;;;;;4.15;1.35;;;16.20;98.50;;;;;;5030862;28;20430;-80
2021/08/10 01:12:40;;;;;;;3.35;1.80;;;16.20;98.40;;;;;;5029767;28;20133;-79
2021/08/10 01:15:17;;;;;;;3.55;1.90;;;16.20;98.40;;;;;;5031150;28;20029;-79
2021/08/10 01:18:01;;;;;;;3.97;1.77;;;16.20;98.40;;;;;;5030813;28;20463;-79
2021/08/10 01:20:30;;;;;;;4.10;1.88;;;16.20;98.30;;;;;;5031130;28;20036;-79
2021/08/10 01:22:58;;;;;;;2.10;1.33;;;16.20;98.30;;;;;;5030810;28;20115;-80
2021/08/10 01:25:39;;;;;;;5.50;1.95;;;16.10;98.40;;;;;;5030877;28;20030;-80
2021/08/10 01:28:36;;;;;;;3.42;1.80;;;16.20;98.20;;;;;;5030806;28;20041;-79
2021/08/10 01:31:18;;;;;;;3.55;1.80;;;16.20;98.10;;;;;;5029632;28;20041;-79
2021/08/10 01:33:48;;;;;;;4.43;1.90;;;16.20;98.20;;;;;;5030638;28;20036;-79
2021/08/10 01:36:16;;;;;;;5.95;1.83;;;16.20;97.90;;;;;;5042633;28;20036;-79
2021/08/10 01:38:45;;;;;;;5.28;1.67;;;16.20;97.60;;;;;;5050421;28;20037;-79
2021/08/10 01:41:12;;;;;;;5.00;2.00;;;16.30;97.50;;;;;;5050939;28;20371;-79
2021/08/10 01:43:40;;;;;;;3.72;1.88;;;16.30;97.40;;;;;;5050621;28;20036;-79
2021/08/10 01:46:06;;;;;;;;;;;16.30;97.70;;;;;;5049726;28;20032;-79
2021/08/10 01:48:33;;;;;;;1.75;1.40;;;16.20;97.80;;;;;;5050400;28;19905;-78
2021/08/10 01:50:59;;;;;;;4.07;1.87;;;16.20;97.70;;;;;;5049886;28;20071;-78
2021/08/10 01:53:27;;;;;;;3.83;1.75;;;16.20;97.50;;;;;;5051894;28;20053;-78
2021/08/10 01:55:57;;;;;;;5.05;1.95;;;16.20;97.60;;;;;;5053337;28;20413;-78
2021/08/10 01:58:24;;;;;;;6.68;2.10;;;16.30;97.20;;;;;;5054227;28;20037;-77
2021/08/10 02:00:52;;;;;;;3.28;2.00;;;16.30;97.10;;;;;;5053228;28;20037;-78
2021/08/10 02:03:18;;;;;;;5.82;1.73;;;16.30;97.00;;;;;;5054119;28;20030;-77
2021/08/10 02:05:45;;;;;;;5.05;1.77;;;16.30;96.90;;;;;;5054402;28;20017;-78
2021/08/10 02:08:12;;;;;;;3.33;1.48;;;16.30;96.80;;;;;;5053943;28;20062;-76
2021/08/10 02:10:39;;;;;;;5.53;1.65;;;16.30;96.80;;;;;;5053862;28;20036;-78
2021/08/10 02:13:06;;;;;;;3.38;1.88;;;16.40;96.70;;;;;;5053862;28;20041;-78
2021/08/10 02:15:32;;;;;;;3.67;1.73;;;16.40;96.60;;;;;;5052711;28;20071;-78
2021/08/10 02:17:59;;;;;;;4.85;1.88;;;16.40;96.80;;;;;;5053096;28;20036;-79
2021/08/10 02:20:26;;;;;;;5.47;1.92;;;16.50;96.70;;;;;;5053718;28;20036;-77
2021/08/10 02:22:51;;;;;;;2.67;1.70;;;16.50;96.70;;;;;;5052312;28;20056;-79
2021/08/10 02:25:22;;;;;;;5.82;2.53;;;16.50;96.60;;;;;;5053449;28;20040;-78
2021/08/10 02:27:55;;;;;;;3.35;1.73;;;16.50;96.70;;;;;;5053502;28;20037;-77
2021/08/10 02:30:26;;;;;;;3.95;1.70;;;16.50;96.90;;;;;;5053811;28;20435;-78
2021/08/10 02:32:52;;;;;;;4.47;1.98;;;16.50;97.00;;;;;;5054455;28;20067;-78
2021/08/10 02:35:24;;;;;;;4.03;2.00;;;16.50;96.90;;;;;;5053411;28;20033;-78
2021/08/10 02:37:52;;;;;;;3.55;1.75;;;16.50;96.80;;;;;;5053327;28;20040;-77
2021/08/10 02:40:20;;;;;;;3.47;1.67;;;16.50;97.20;;;;;;5052251;28;20067;-77
2021/08/10 02:42:51;;;;;;;4.00;1.80;;;16.50;97.10;;;;;;5053281;28;20025;-76
2021/08/10 02:45:17;;;;;;;4.72;2.08;;;16.50;97.00;;;;;;5053464;28;20064;-79
2021/08/10 02:47:53;;;;;;;6.28;1.90;;;16.50;97.10;;;;;;5053811;28;20056;-78
2021/08/10 02:50:20;;;;;;;7.28;1.70;;;16.50;97.10;;;;;;5052856;28;20029;-78
2021/08/10 02:52:46;;;;;;;3.25;1.70;;;16.50;97.30;;;;;;5053069;28;20029;-79
2021/08/10 02:55:12;;;;;;;5.18;1.77;;;16.60;97.30;;;;;;5051875;28;20052;-78
2021/08/10 02:57:59;;;;;;;3.50;1.55;;;16.50;97.20;;;;;;5051611;28;20112;-77
2021/08/10 03:00:28;;;;;;;3.85;1.98;;;16.60;97.20;;;;;;5052939;28;20346;-79
2021/08/10 03:02:59;;;;;;;4.82;1.75;;;16.60;97.30;;;;;;5053237;28;20450;-78
2021/08/10 03:05:28;;;;;;;3.80;1.75;;;16.60;97.40;;;;;;5052187;28;20033;-78
2021/08/10 03:07:57;;;;;;;5.80;1.70;;;16.60;97.40;;;;;;5052986;28;20057;-77
2021/08/10 03:10:25;;;;;;;3.95;1.65;;;16.60;97.50;;;;;;5051822;28;20094;-78
2021/08/10 03:12:53;;;;;;;3.35;1.60;;;16.60;97.60;;;;;;5052819;28;20044;-79
2021/08/10 03:15:27;;;;;;;2.63;1.60;;;16.60;97.40;;;;;;5052558;28;20455;-79
2021/08/10 03:17:57;;;;;;;6.82;1.92;;;16.70;97.50;;;;;;5052975;28;20400;-80
2021/08/10 03:20:23;;;;;;;5.70;1.85;;;16.70;97.50;;;;;;5051446;28;20498;-79
2021/08/10 03:22:51;;;;;;;4.88;2.10;;;16.70;97.60;;;;;;5052521;28;20059;-79
2021/08/10 03:25:20;;;;;;;4.30;2.20;;;16.80;97.40;;;;;;5052652;28;20187;-79
2021/08/10 03:27:49;;;;;;;3.25;1.45;;;16.80;97.50;;;;;;5051094;28;20044;-79
2021/08/10 03:30:15;;;;;;;3.97;1.80;;;16.80;97.50;;;;;;5051191;28;20102;-77
2021/08/10 03:32:42;;;;;;;4.90;2.45;;;16.80;97.40;;;;;;5052738;28;20747;-79
2021/08/10 03:35:08;;;;;;;2.13;1.30;;;16.90;97.40;;;;;;5052103;28;20061;-77
2021/08/10 03:37:35;;;;;;;5.55;1.95;;;16.90;97.40;;;;;;5052304;28;20102;-78
2021/08/10 03:40:02;;;;;;;3.65;1.80;;;16.80;97.50;;;;;;5052439;28;20424;-78
2021/08/10 03:42:28;;;;;;;3.42;1.67;;;16.80;97.60;;;;;;5051046;28;20028;-79
2021/08/10 03:44:54;;;;;;;2.83;1.80;;;16.80;97.70;;;;;;5052591;28;20021;-78
2021/08/10 03:47:21;;;;;;;4.13;1.75;;;16.80;97.70;;;;;;5052122;28;20043;-78
2021/08/10 03:49:48;;;;;;;2.50;1.58;;;16.80;97.50;;;;;;5052015;28;20035;-80
2021/08/10 03:52:15;;;;;;;3.70;1.65;;;16.80;97.50;;;;;;5052466;28;20110;-79
2021/08/10 03:54:42;;;;;;;3.25;1.90;;;16.90;97.70;;;;;;5053778;28;20115;-78
2021/08/10 03:57:13;;;;;;;2.42;1.50;;;16.80;97.50;;;;;;5051201;28;20041;-78
2021/08/10 03:59:40;;;;;;;2.80;1.70;;;16.80;97.50;;;;;;5051958;28;20041;-78
2021/08/10 04:02:08;;;;;;;3.03;1.60;;;16.90;97.60;;;;;;5051789;28;20040;-78
2021/08/10 04:04:34;;;;;;;1.65;1.40;;;16.80;97.70;;;;;;5051728;28;20651;-78
2021/08/10 04:07:03;;;;;;;3.85;1.98;;;16.80;97.70;;;;;;5050504;28;20120;-78
2021/08/10 04:09:28;;;;;;;3.20;1.48;;;16.80;97.80;;;;;;5051691;28;20029;-79
2021/08/10 04:11:54;;;;;;;5.68;2.00;;;16.80;97.90;;;;;;5051949;28;20504;-78
2021/08/10 04:14:21;;;;;;;5.30;1.45;;;16.80;98.00;;;;;;5051845;28;20029;-78
2021/08/10 04:17:01;;;;;;;7.03;1.63;;;16.80;98.00;;;;;;5051355;28;20128;-78
2021/08/10 04:19:32;;;;;;;2.97;1.65;;;16.70;98.00;;;;;;5051601;28;20037;-80
2021/08/10 04:21:58;;;;;;;5.00;1.55;;;16.80;97.90;;;;;;5051441;28;20041;-80
2021/08/10 04:24:24;;;;;;;2.22;1.60;;;16.80;97.80;;;;;;5051463;28;20039;-79
2021/08/10 04:26:50;;;;;;;3.83;1.90;;;16.80;98.00;;;;;;5051783;28;20029;-81
2021/08/10 04:29:15;;;;;;;3.70;1.65;;;16.80;98.60;;;;;;5051384;28;20029;-79
2021/08/10 04:31:41;;;;;;;3.72;2.05;;;16.80;98.70;;;;;;5051341;28;20098;-79
2021/08/10 04:34:07;;;;;;;3.90;1.60;;;16.80;98.80;;;;;;5051407;28;20121;-79
2021/08/10 04:36:33;;;;;;;8.02;2.05;;;16.80;98.90;;;;;;5050948;28;20112;-80
2021/08/10 04:39:00;;;;;;;5.50;2.15;;;16.80;99.10;;;;;;5051649;28;20093;-80
2021/08/10 04:41:26;;;;;;;2.92;1.65;;;16.80;99.10;;;;;;5051153;28;20040;-81
2021/08/10 04:43:52;;;;;;;7.43;2.05;;;16.80;98.90;;;;;;5050396;28;20128;-79
2021/08/10 04:46:26;;;;;;;5.68;2.58;;;16.80;99.00;;;;;;5049847;28;20624;-80
2021/08/10 04:48:52;;;;;;;6.38;1.80;;;16.90;98.90;;;;;;5050083;28;20454;-79
2021/08/10 04:51:18;;;;;;;5.40;1.77;;;16.90;98.80;;;;;;5050853;28;20021;-79
2021/08/10 04:53:43;;;;;;;3.70;1.90;;;16.90;98.80;;;;;;5051478;28;20021;-79
2021/08/10 04:56:10;;;;;;;4.55;1.90;;;17.00;98.90;;;;;;5049652;28;20123;-80
2021/08/10 04:58:36;;;;;;;6.10;2.05;;;17.00;98.90;;;;;;5050055;28;20025;-81
2021/08/10 05:01:02;;;;;;;8.50;2.28;;;17.00;99.10;;;;;;5050745;28;20429;-79
2021/08/10 05:03:29;;;;;;;5.97;2.17;;;17.10;99.10;;;;;;5050870;28;20048;-79
2021/08/10 05:05:55;;;;;;;4.30;1.80;;;17.10;99.10;;;;;;5051262;28;20533;-79
2021/08/10 05:08:20;;;;;;;4.82;2.00;;;17.10;99.20;;;;;;5050649;28;20040;-76
2021/08/10 05:10:46;;;;;;;3.63;1.98;;;17.20;99.20;;;;;;5050862;28;20090;-78
2021/08/10 05:13:12;;;;;;;4.22;2.05;;;17.10;99.30;;;;;;5050885;28;20052;-79
2021/08/10 05:15:37;;;;;;;3.85;2.03;;;17.10;99.30;;;;;;5050513;28;20048;-78
2021/08/10 05:18:03;;;;;;;5.85;1.90;;;17.10;99.20;;;;;;5051080;28;20056;-80
2021/08/10 05:20:29;;;;;;;7.00;1.92;;;17.10;99.00;;;;;;5050684;28;20025;-80
2021/08/10 05:22:54;;;;;;;4.53;2.00;;;17.20;98.90;;;;;;5050485;28;20499;-78
2021/08/10 05:25:20;;;;;;;3.53;1.80;;;17.10;99.00;;;;;;5049803;28;20040;-79
2021/08/10 05:27:46;;;;;;;4.35;1.73;;;17.10;99.50;;;;;;5050100;28;20037;-79
2021/08/10 05:30:13;;;;;;;3.22;1.52;;;17.10;99.40;;;;;;5055266;28;20086;-78
2021/08/10 05:32:38;;;;;;;3.70;1.52;;;17.10;99.10;;;;;;5053475;28;20056;-79
2021/08/10 05:35:05;;;;;;;4.65;1.95;;;17.20;98.90;;;;;;5053174;28;20068;-79
2021/08/10 05:37:30;;;;;;;3.30;1.80;;;17.10;99.20;;;;;;5053821;28;20068;-78
2021/08/10 05:39:56;;;;;;;2.72;1.60;;;17.10;98.90;;;;;;5054780;28;20058;-78
2021/08/10 05:42:21;;;;;;;3.63;1.77;;;17.10;99.50;;;;;;5054800;28;20463;-80
2021/08/10 05:44:47;;;;;;;4.40;1.55;;;17.20;99.20;;;;;;5055210;28;20033;-77
2021/08/10 05:47:12;;;;;;;4.65;1.70;;;17.20;99.20;;;;;;5054341;28;20516;-79
2021/08/10 05:49:38;;;;;;;4.75;1.95;;;17.20;99.10;;;;;;5054151;28;20161;-79
2021/08/10 05:52:04;;;;;;;5.00;1.83;;;17.20;99.10;;;;;;5054338;28;20086;-79
2021/08/10 05:54:30;;;;;;;2.78;1.73;;;17.20;98.90;;;;;;5054190;28;20017;-78
2021/08/10 05:56:55;;;;;;;4.55;1.75;;;17.20;98.60;;;;;;5054695;28;20021;-79
2021/08/10 05:59:21;;;;;;;3.50;1.88;;;17.10;98.50;;;;;;5054167;28;20403;-78
2021/08/10 06:01:47;;;;;;;2.40;1.52;;;17.20;98.40;;;;;;5054065;28;20053;-78
2021/08/10 06:04:12;;;;;;;3.55;1.70;;;17.10;98.50;;;;;;5054125;28;20182;-78
2021/08/10 06:06:38;;;;;;;6.30;2.25;;;17.20;98.50;;;;;;5055220;28;20593;-78
2021/08/10 06:09:05;;;;;;;3.00;1.63;;;17.10;98.50;;;;;;5054465;28;20029;-79
2021/08/10 06:11:32;;;;;;;5.47;1.83;;;17.10;98.60;;;;;;5053979;28;20471;-80
2021/08/10 06:13:57;;;;;;;4.07;1.98;;;17.20;98.70;;;;;;5052746;28;20328;-75
2021/08/10 06:16:23;;;;;;;6.25;2.47;;;17.10;98.70;;;;;;5053554;28;20063;-75
2021/08/10 06:18:49;;;;;;;3.88;1.75;;;17.20;98.70;;;;;;5053298;28;20040;-74
2021/08/10 06:21:15;;;;;;;4.78;1.95;;;17.20;98.70;;;;;;5053351;28;20307;-75
2021/08/10 06:23:40;;;;;;;9.73;2.10;;;17.20;98.70;;;;;;5053854;28;20049;-74
2021/08/10 06:26:06;;;;;;;4.85;1.88;;;17.30;98.60;;;;;;5053246;28;20233;-74
2021/08/10 06:28:32;;;;;;;4.38;2.65;;;17.20;98.50;;;;;;5052510;28;20424;-73
2021/08/10 06:30:58;;;;;;;9.80;4.30;;;17.20;98.20;;;;;;5053200;28;20039;-74
2021/08/10 06:33:23;;;;;;;4.72;2.30;;;17.20;98.30;;;;;;5043229;28;20128;-72
2021/08/10 06:35:49;;;;;;;6.85;3.38;;;17.30;98.10;;;;;;5033805;28;20026;-77
2021/08/10 06:38:14;;;;;;;11.75;5.43;;;17.30;98.10;;;;;;5033429;28;20053;-77
2021/08/10 06:40:41;;;;;;;5.32;3.33;;;17.30;98.00;;;;;;5030978;28;20045;-75
2021/08/10 06:43:08;;;;;;;3.80;1.83;;;17.40;97.80;;;;;;5033340;28;20034;-76
2021/08/10 06:45:34;;;;;;;7.88;2.17;;;17.30;97.90;;;;;;5033354;28;20037;-78
2021/08/10 06:48:01;;;;;;;5.72;1.85;;;17.40;97.90;;;;;;5034082;28;20103;-81
2021/08/10 06:50:27;;;;;;;6.57;2.08;;;17.40;97.90;;;;;;5032327;28;20026;-78
2021/08/10 06:52:52;;;;;;;5.68;2.15;;;17.40;98.00;;;;;;5033289;28;20068;-76
2021/08/10 06:55:18;;;;;;;3.30;1.73;;;17.40;98.00;;;;;;5031992;28;20053;-78
2021/08/10 06:57:44;;;;;;;4.30;2.22;;;17.50;98.10;;;;;;5033190;28;20514;-78
2021/08/10 07:00:10;;;;;;;5.38;1.80;;;17.50;98.20;;;;;;5032187;28;20452;-76
2021/08/10 07:02:36;;;;;;;5.25;1.88;;;17.50;98.20;;;;;;5033227;28;20429;-76
2021/08/10 07:05:01;;;;;;;7.70;1.90;;;17.50;98.30;;;;;;5032093;28;20151;-78
2021/08/10 07:07:27;;;;;;;7.47;2.35;;;17.50;98.30;;;;;;5031780;28;20029;-79
2021/08/10 07:09:53;;;;;;;8.75;5.07;;;17.50;98.20;;;;;;5032998;28;20030;-78
2021/08/10 07:12:18;;;;;;;11.90;4.70;;;17.50;98.30;;;;;;5031938;28;20022;-74
2021/08/10 07:14:44;;;;;;;8.02;2.17;;;17.50;98.30;;;;;;5033189;28;20017;-76
2021/08/10 07:17:09;;;;;;;2.92;1.80;;;17.60;98.40;;;;;;5032481;28;20037;-74
2021/08/10 07:19:35;;;;;;;6.15;2.08;;;17.60;98.50;;;;;;5032637;28;20099;-77
2021/08/10 07:22:00;;;;;;;5.50;2.00;;;17.60;98.40;;;;;;5031286;28;20120;-75
2021/08/10 07:24:26;;;;;;;2.75;1.77;;;17.60;98.40;;;;;;5031470;28;20025;-81
2021/08/10 07:26:52;;;;;;;5.53;1.65;;;17.70;98.60;;;;;;5032014;28;20038;-74
2021/08/10 07:29:19;;;;;;;9.00;3.03;;;17.70;98.80;;;;;;5032780;28;20025;-77
2021/08/10 07:31:44;;;;;;;5.43;2.22;;;17.70;98.90;;;;;;5032617;28;20041;-75
2021/08/10 07:34:10;;;;;;;5.18;2.55;;;17.80;99.30;;;;;;5032604;28;20033;-79
2021/08/10 07:36:36;;;;;;;5.43;2.38;;;17.90;98.90;;;;;;5032474;28;20041;-78
2021/08/10 07:39:02;;;;;;;7.20;2.13;;;17.90;98.70;;;;;;5032636;28;20135;-76
2021/08/10 07:41:27;;;;;;;4.22;1.90;;;18.10;98.80;;;;;;5032018;28;20049;-75
2021/08/10 07:43:53;;;;;;;6.75;2.85;;;18.10;98.50;;;;;;5032197;28;20375;-76
2021/08/10 07:46:18;;;;;;;5.47;2.33;;;18.20;98.80;;;;;;5030855;28;20057;-78
2021/08/10 07:48:44;;;;;;;8.93;2.47;;;18.40;98.70;;;;;;5032200;28;20212;-78
2021/08/10 07:51:09;;;;;;;6.32;2.45;;;18.40;98.10;;;;;;5032212;28;20104;-79
2021/08/10 07:53:36;;;;;;;9.98;2.78;;;18.50;98.00;;;;;;5031372;28;20049;-77
2021/08/10 07:56:03;;;;;;;4.07;2.15;;;18.60;98.10;;;;;;5032025;28;20132;-80
2021/08/10 07:58:28;;;;;;;4.32;2.30;;;18.60;97.60;;;;;;5030829;28;20037;-78
2021/08/10 08:00:54;;;;;;;4.72;1.60;;;18.70;97.60;;;;;;5031970;28;20121;-75
2021/08/10 08:03:19;;;;;;;8.07;4.22;;;18.90;97.40;;;;;;5031737;28;20092;-77
2021/08/10 08:05:45;;;;;;;8.82;2.45;;;19.00;97.10;;;;;;5032072;28;20033;-75
2021/08/10 08:08:11;;;;;;;6.30;2.45;;;19.10;97.20;;;;;;5031775;28;20029;-76
2021/08/10 08:10:36;;;;;;;4.50;2.15;;;19.40;96.90;;;;;;5031682;28;20038;-78
2021/08/10 08:13:02;;;;;;;4.57;2.45;;;19.60;97.00;;;;;;5032020;28;20045;-81
2021/08/10 08:15:27;;;;;;;7.38;3.08;;;19.80;96.40;;;;;;5031827;28;20032;-77
2021/08/10 08:17:53;;;;;;;9.00;3.55;;;20.10;96.10;;;;;;5032409;28;20044;-78
2021/08/10 08:20:19;;;;;;;5.45;2.42;;;20.50;94.50;;;;;;5033318;28;20459;-77
2021/08/10 08:22:46;;;;;;;9.85;2.72;;;20.90;94.40;;;;;;5031968;28;20411;-80
2021/08/10 08:25:12;;;;;;;5.50;2.90;;;21.40;93.50;;;;;;5030425;28;20033;-79
2021/08/10 08:27:38;;;;;;;6.13;3.15;;;21.40;93.20;;;;;;5031401;28;20475;-77
2021/08/10 08:30:06;;;;;;;5.05;2.67;;;21.60;93.10;;;;;;5031610;28;20470;-77
2021/08/10 08:32:32;;;;;;;6.93;2.42;;;22.50;92.80;;;;;;5031395;28;20497;-78
2021/08/10 08:34:57;;;;;;;6.15;2.92;;;23.80;92.10;;;;;;5030315;28;20055;-75
2021/08/10 08:37:23;;;;;;;5.93;3.13;;;24.70;87.70;;;;;;5030070;28;20662;-77
2021/08/10 08:39:49;;;;;;;8.45;3.70;;;25.10;89.70;;;;;;5031304;28;20036;-77
2021/08/10 08:42:15;;;;;;;6.03;3.60;;;26.10;85.80;;;;;;5031328;28;20390;-77
2021/08/10 08:44:41;;;;;;;9.13;3.97;;;26.70;81.10;;;;;;5031650;28;20037;-77
2021/08/10 08:47:09;;;;;;;9.80;4.85;;;26.50;80.20;;;;;;5031246;28;20029;-78
2021/08/10 08:49:38;;;;;;;7.55;3.97;;;27.30;77.00;;;;;;5031136;28;20121;-78
2021/08/10 08:52:08;;;;;;;6.57;4.00;;;27.40;77.10;;;;;;5031213;28;20042;-77
2021/08/10 08:54:34;;;;;;;9.38;3.88;;;27.60;75.40;;;;;;5030733;28;20107;-77
2021/08/10 08:56:59;;;;;;;7.28;4.07;;;28.20;73.70;;;;;;5031354;28;20025;-76
2021/08/10 08:59:25;;;;;;;10.43;4.47;;;27.90;74.10;;;;;;5029904;28;20650;-77
2021/08/10 09:01:52;;;;;;;7.90;4.38;;;28.00;72.50;;;;;;5030782;28;20068;-76
2021/08/10 09:04:18;;;;;;;8.75;4.35;;;28.60;71.80;;;;;;5029511;28;20542;-77
2021/08/10 09:06:45;;;;;;;9.30;4.82;;;29.60;68.80;;;;;;5030806;28;20037;-77
2021/08/10 09:09:30;;;;;;;7.78;4.90;;;30.10;67.20;;;;;;5031246;28;20014;-76
2021/08/10 09:11:58;;;;;;;9.25;5.90;;;30.50;60.50;;;;;;5030921;28;20034;-77
2021/08/10 09:14:25;;;;;;;9.55;5.50;;;29.60;59.90;;;;;;5030882;28;20044;-76
2021/08/10 09:17:06;;;;;;;11.60;6.30;;;29.10;63.00;;;;;;5030593;28;20514;-78
2021/08/10 09:19:43;;;;;;;12.93;6.50;;;28.70;59.90;;;;;;5030670;28;20037;-74
2021/08/10 09:22:16;;;;;;;10.77;5.90;;;28.80;61.60;;;;;;5029363;28;20041;-75
2021/08/10 09:24:51;;;;;;;9.65;6.13;;;29.00;61.10;;;;;;5030477;28;20132;-76
2021/08/10 09:27:37;;;;;;;9.80;6.00;;;29.00;60.50;;;;;;5030688;28;20049;-76
2021/08/10 09:30:05;;;;;;;11.25;6.72;;;30.10;57.90;;;;;;5031033;28;20071;-78
2021/08/10 09:32:30;;;;;;;11.13;6.55;;;29.60;57.50;;;;;;5030426;28;20025;-79
2021/08/10 09:35:17;;;;;;;12.88;7.32;;;28.80;58.70;;;;;;5029451;28;20215;-76
2021/08/10 09:38:05;;;;;;;12.02;7.15;;;30.00;58.00;;;;;;5030632;28;20064;-77
2021/08/10 09:40:35;;;;;;;12.13;6.38;;;29.90;56.80;;;;;;5030356;28;20030;-76
2021/08/10 09:43:31;;;;;;;12.27;6.93;;;29.70;57.80;;;;;;5029589;28;20376;-76
2021/08/10 09:46:09;;;;;;;10.05;6.30;;;30.20;56.80;;;;;;5030661;28;20058;-77
2021/08/10 09:48:36;;;;;;;9.98;5.70;;;30.50;56.00;;;;;;5029507;28;20056;-77
2021/08/10 09:51:10;;;;;;;7.57;4.90;;;31.30;57.70;;;;;;5030603;28;20179;-76
2021/08/10 09:53:36;;;;;;;10.40;5.50;;;31.70;56.30;;;;;;5030211;28;20033;-78
2021/08/10 09:56:03;;;;;;;8.65;5.10;;;31.40;56.10;;;;;;5030208;28;20129;-77
2021/08/10 09:58:28;;;;;;;10.32;5.18;;;31.00;56.50;;;;;;5030296;28;20022;-76
2021/08/10 10:00:59;;;;;;;9.73;5.68;;;30.30;57.20;;;;;;5030279;28;20044;-76
2021/08/10 10:03:27;;;;;;;11.32;5.95;;;30.40;57.80;;;;;;5029511;28;20079;-76
2021/08/10 10:05:53;;;;;;;9.88;5.30;;;29.40;57.80;;;;;;5029469;28;20533;-79
2021/08/10 10:08:20;;;;;;;8.85;4.65;;;28.60;59.80;;;;;;5030234;28;20072;-75
2021/08/10 10:10:47;;;;;;;7.05;4.55;;;29.10;60.50;;;;;;5030160;28;20041;-76
2021/08/10 10:13:16;;;;;;;8.80;5.40;;;30.00;58.60;;;;;;5029120;28;20148;-76
2021/08/10 10:15:42;;;;;;;8.15;4.88;;;29.70;57.00;;;;;;5032329;28;20029;-77
2021/08/10 10:18:09;;;;;;;9.50;4.57;;;28.80;58.10;;;;;;5033109;28;20036;-73
2021/08/10 10:20:36;;;;;;;10.80;4.60;;;28.90;58.30;;;;;;5033580;28;20029;-77
2021/08/10 10:23:04;;;;;;;5.93;3.53;;;28.80;58.40;;;;;;5033432;28;20506;-76
2021/08/10 10:25:33;;;;;;;10.15;4.85;;;28.70;58.20;;;;;;5033451;28;20041;-77
2021/08/10 10:27:59;;;;;;;6.90;4.30;;;28.80;58.60;;;;;;5032411;28;20263;-74
2021/08/10 10:30:26;;;;;;;8.55;4.75;;;28.80;58.10;;;;;;5032267;28;20043;-75
2021/08/10 10:32:52;;;;;;;6.05;4.28;;;28.50;57.70;;;;;;5032562;28;20139;-76
2021/08/10 10:35:18;;;;;;;6.93;4.35;;;28.60;58.70;;;;;;5033395;28;20033;-73
2021/08/10 10:37:46;;;;;;;7.40;4.43;;;28.00;58.40;;;;;;5033402;28;20030;-73
2021/08/10 10:40:15;;;;;;;10.25;4.50;;;27.50;59.80;;;;;;5033092;28;20064;-74
2021/08/10 10:42:45;;;;;;;8.68;4.80;;;27.30;61.10;;;;;;5032159;28;20029;-75
2021/08/10 10:45:37;;;;;;;8.82;4.97;;;27.30;60.40;;;;;;5033623;28;20411;-75
2021/08/10 10:48:27;;;;;;;7.65;4.45;;;26.80;61.10;;;;;;5033250;28;20177;-74
2021/08/10 10:51:12;;;;;;;7.32;4.07;;;26.70;62.00;;;;;;5033148;28;20046;-74
2021/08/10 10:53:47;;;;;;;7.20;4.20;;;26.70;61.60;;;;;;5032019;28;20033;-74
2021/08/10 10:56:25;;;;;;;7.03;3.75;;;26.40;61.90;;;;;;5031517;28;20045;-75
2021/08/10 10:58:53;;;;;;;5.82;3.65;;;26.00;62.20;;;;;;5031563;28;20037;-74
2021/08/10 11:01:19;;;;;;;;;;;25.80;61.90;;;;;;5031993;28;20117;-75
2021/08/10 11:04:02;;;;;;;7.97;4.28;;;25.60;62.00;;;;;;5032640;28;19999;-74
2021/08/10 11:06:35;;;;;;;7.78;3.92;;;25.90;62.40;;;;;;5032453;28;20032;-74
2021/08/10 11:09:03;;;;;;;4.97;3.45;;;25.80;62.30;;;;;;5032881;28;20017;-74
2021/08/10 11:11:49;;;;;;;5.15;3.50;;;25.60;62.20;;;;;;5032753;28;20440;-74
2021/08/10 11:14:36;;;;;;;5.22;3.20;;;25.50;61.80;;;;;;5032435;28;20037;-75
2021/08/10 11:17:11;;;;;;;;;;;25.60;62.80;;;;;;5032868;28;20052;-73
2021/08/10 11:19:48;;;;;;;8.30;3.78;;;25.50;62.30;;;;;;5032589;28;19909;-74
2021/08/10 11:22:16;;;;;;;5.93;3.60;;;25.30;62.50;;;;;;5031982;28;20127;-74
2021/08/10 11:24:47;;;;;;;6.38;3.55;;;25.20;63.00;;;;;;5032349;28;20033;-73
2021/08/10 11:27:46;;;;;;;7.25;3.70;;;25.40;63.20;;;;;;5032080;28;20022;-74
2021/08/10 11:30:44;;;;;;;6.78;3.60;;;25.30;63.40;;;;;;5020227;28;20053;-74
2021/08/10 11:33:29;;;;;;;7.32;3.88;;;25.30;62.90;;;;;;5032528;28;20108;-74
2021/08/10 11:35:56;;;;;;;5.03;3.45;;;25.00;63.50;;;;;;5032041;28;20188;-74
2021/08/10 11:38:21;;;;;;;5.38;3.17;;;25.10;62.90;;;;;;5032029;28;20030;-73
2021/08/10 11:40:50;;;;;;;5.40;3.13;;;25.00;63.10;;;;;;5031898;28;20101;-74
2021/08/10 11:43:15;;;;;;;7.50;3.60;;;24.70;63.90;;;;;;5031856;28;20056;-74
2021/08/10 11:45:41;;;;;;;4.25;3.10;;;24.50;64.60;;;;;;5031780;28;20355;-73
2021/08/10 11:48:07;;;;;;;6.13;3.75;;;24.30;65.50;;;;;;5032362;28;20021;-73
2021/08/10 11:50:35;;;;;;;11.07;6.55;;;24.30;65.70;;;;;;5031685;28;20036;-74
2021/08/10 11:53:04;;;;;;;8.45;3.92;;;24.30;65.60;;;;;;5031715;28;20044;-74
2021/08/10 11:55:36;;;;;;;6.57;3.70;;;24.20;65.80;;;;;;5031684;28;20060;-74
2021/08/10 11:58:06;;;;;;;7.60;3.67;;;24.10;65.90;;;;;;5031427;28;20037;-74
2021/08/10 12:00:35;;;;;;;8.38;3.80;;;24.10;66.50;;;;;;5031351;28;20030;-77
2021/08/10 12:03:03;;;;;;;9.77;3.42;;;24.10;66.90;;;;;;5031853;28;20029;-73
2021/08/10 12:05:30;;;;;;;5.95;3.20;;;24.10;67.30;;;;;;5031335;28;20030;-73
2021/08/10 12:07:58;;;;;;;6.00;3.25;;;24.20;67.30;;;;;;5030619;28;20034;-75
2021/08/10 12:10:30;;;;;;;8.65;3.40;;;24.20;66.90;;;;;;5031321;28;20037;-73
2021/08/10 12:13:22;;;;;;;6.60;3.33;;;24.20;67.20;;;;;;5031423;28;20367;-75
2021/08/10 12:15:49;;;;;;;5.68;3.15;;;24.40;67.40;;;;;;5030947;28;20129;-75
2021/08/10 12:18:20;;;;;;;6.63;3.22;;;24.30;67.10;;;;;;5031240;28;20417;-72
2021/08/10 12:20:58;;;;;;;5.63;3.42;;;24.20;67.10;;;;;;5031478;28;20048;-72
2021/08/10 12:23:25;;;;;;;6.53;3.83;;;24.10;66.90;;;;;;5031071;28;20049;-71
2021/08/10 12:25:51;;;;;;;10.90;6.75;;;24.10;67.20;;;;;;5030964;28;20471;-72
2021/08/10 12:28:17;;;;;;;6.45;3.53;;;24.10;67.50;;;;;;5031066;28;20128;-74
2021/08/10 12:30:43;;;;;;;10.60;4.45;;;24.00;67.40;;;;;;5030962;28;20029;-73
2021/08/10 12:33:13;;;;;;;8.00;4.65;;;24.10;67.50;;;;;;5031253;28;20022;-71
2021/08/10 12:35:39;;;;;;;6.55;4.18;;;24.10;67.50;;;;;;5031244;28;20091;-72
2021/08/10 12:38:05;;;;;;;5.85;3.35;;;24.30;67.50;;;;;;5029816;28;20571;-73
2021/08/10 12:40:31;;;;;;;8.77;3.75;;;24.40;67.10;;;;;;5029960;28;20041;-74
2021/08/10 12:42:57;;;;;;;6.97;4.30;;;24.40;66.80;;;;;;5030965;28;20411;-74
2021/08/10 12:45:30;;;;;;;6.90;4.50;;;24.40;66.30;;;;;;5030822;28;20040;-71
2021/08/10 12:47:56;;;;;;;10.88;5.72;;;24.20;66.20;;;;;;5030971;28;20045;-73
2021/08/10 12:50:23;;;;;;;7.15;3.70;;;24.20;66.80;;;;;;5030817;28;20057;-74
2021/08/10 12:52:48;;;;;;;5.55;3.83;;;24.20;67.10;;;;;;5030832;28;20436;-73
2021/08/10 12:55:14;;;;;;;6.22;3.85;;;24.20;67.30;;;;;;5030620;28;20034;-73